createdAt,value
2023-04-02T00:01:21.366Z,3.30
2023-04-02T00:04:14.868Z,3.40
2023-04-02T00:06:54.409Z,3.40
2023-04-02T00:09:33.733Z,3.67
2023-04-02T00:12:19.228Z,3.13
2023-04-02T00:14:55.416Z,3.20
2023-04-02T00:17:30.770Z,3.33
2023-04-02T00:20:11.320Z,3.10
2023-04-02T00:22:45.785Z,3.20
2023-04-02T00:25:20.481Z,3.17
2023-04-02T00:27:49.671Z,3.30
2023-04-02T00:30:28.776Z,3.20
2023-04-02T00:32:59.112Z,2.50
2023-04-02T00:35:39.167Z,2.90
2023-04-02T00:38:21.375Z,2.77
2023-04-02T00:40:59.412Z,2.87
2023-04-02T00:43:34.272Z,2.83
2023-04-02T00:46:15.749Z,2.80
2023-04-02T00:48:59.825Z,3.03
2023-04-02T00:51:37.871Z,2.80
2023-04-02T00:54:16.039Z,3.03
2023-04-02T00:57:04.406Z,2.97
2023-04-02T00:59:50.192Z,3.10
2023-04-02T01:02:28.538Z,3.73
2023-04-02T01:05:03.530Z,3.30
2023-04-02T01:07:54.045Z,3.43
2023-04-02T01:10:45.375Z,3.20
2023-04-02T01:13:25.482Z,2.90
2023-04-02T01:16:04.239Z,2.50
2023-04-02T01:18:50.468Z,2.90
2023-04-02T01:21:36.945Z,2.67
2023-04-02T01:24:12.049Z,2.67
2023-04-02T01:26:57.566Z,2.20
2023-04-02T01:29:32.227Z,2.50
2023-04-02T01:32:10.357Z,2.10
2023-04-02T01:34:47.999Z,2.07
2023-04-02T01:37:34.388Z,2.10
2023-04-02T01:40:27.024Z,2.30
2023-04-02T01:43:07.751Z,2.80
2023-04-02T01:45:43.385Z,2.30
2023-04-02T01:48:30.224Z,2.83
2023-04-02T01:51:08.552Z,2.40
2023-04-02T01:53:40.095Z,2.60
2023-04-02T01:56:21.302Z,2.70
2023-04-02T01:58:57.155Z,2.73
2023-04-02T02:01:32.732Z,2.70
2023-04-02T02:04:05.928Z,2.30
2023-04-02T02:06:38.108Z,2.60
2023-04-02T02:09:16.206Z,2.43
2023-04-02T02:11:53.175Z,2.60
2023-04-02T02:14:46.755Z,2.60
2023-04-02T02:17:24.170Z,2.30
2023-04-02T02:20:02.364Z,2.40
2023-04-02T02:22:40.579Z,2.73
2023-04-02T02:25:17.653Z,2.30
2023-04-02T02:28:03.708Z,2.20
2023-04-02T02:30:50.261Z,2.70
2023-04-02T02:33:26.130Z,2.70
2023-04-02T02:36:03.311Z,2.07
2023-04-02T02:38:54.108Z,2.63
2023-04-02T02:41:41.625Z,2.40
2023-04-02T02:44:21.580Z,2.30
2023-04-02T02:46:57.736Z,2.60
2023-04-02T02:49:33.729Z,2.57
2023-04-02T02:52:16.388Z,2.50
2023-04-02T02:54:54.011Z,2.40
2023-04-02T02:57:38.694Z,2.20
2023-04-02T03:00:16.408Z,2.40
2023-04-02T03:02:50.078Z,1.87
2023-04-02T03:05:26.170Z,2.40
2023-04-02T03:08:03.309Z,2.17
2023-04-02T03:10:46.284Z,2.20
2023-04-02T03:13:24.353Z,2.30
2023-04-02T03:16:00.334Z,2.00
2023-04-02T03:18:43.512Z,2.30
2023-04-02T03:21:26.931Z,2.10
2023-04-02T03:24:12.968Z,2.40
2023-04-02T03:26:55.298Z,2.60
2023-04-02T03:29:31.873Z,2.53
2023-04-02T03:32:21.681Z,2.40
2023-04-02T03:34:59.284Z,2.80
2023-04-02T03:37:50.427Z,2.40
2023-04-02T03:40:34.076Z,2.80
2023-04-02T03:43:13.253Z,3.13
2023-04-02T03:45:58.102Z,3.47
2023-04-02T03:48:40.874Z,3.70
2023-04-02T03:51:21.294Z,3.30
2023-04-02T03:53:53.027Z,3.37
2023-04-02T03:56:30.630Z,3.80
2023-04-02T03:59:12.075Z,3.47
2023-04-02T04:01:53.161Z,3.60
2023-04-02T04:04:30.879Z,3.70
2023-04-02T04:07:03.061Z,3.80
2023-04-02T04:09:38.042Z,3.60
2023-04-02T04:12:20.240Z,3.60
2023-04-02T04:15:02.301Z,3.80
2023-04-02T04:17:51.551Z,4.20
2023-04-02T04:20:34.079Z,4.30
2023-04-02T04:23:16.763Z,4.50
2023-04-02T04:25:58.754Z,3.90
2023-04-02T04:28:42.829Z,4.00
2023-04-02T04:31:39.001Z,3.80
2023-04-02T04:34:19.213Z,4.37
2023-04-02T04:36:54.885Z,4.70
2023-04-02T04:39:29.796Z,4.47
2023-04-02T04:42:03.503Z,4.80
2023-04-02T04:44:42.357Z,4.80
2023-04-02T04:47:19.769Z,4.73
2023-04-02T04:49:57.711Z,5.00
2023-04-02T04:52:40.402Z,4.30
2023-04-02T04:55:26.955Z,4.50
2023-04-02T04:58:24.244Z,4.03
2023-04-02T05:01:01.588Z,3.57
2023-04-02T05:03:44.222Z,3.23
2023-04-02T05:06:36.200Z,2.83
2023-04-02T05:09:19.688Z,2.90
2023-04-02T05:12:04.078Z,2.80
2023-04-02T05:14:47.091Z,2.70
2023-04-02T05:17:27.951Z,2.43
2023-04-02T05:20:09.779Z,2.73
2023-04-02T05:22:49.819Z,2.13
2023-04-02T05:25:50.347Z,2.60
2023-04-02T05:28:31.020Z,2.27
2023-04-02T05:31:07.562Z,2.60
2023-04-02T05:33:47.643Z,2.33
2023-04-02T05:36:33.936Z,2.30
2023-04-02T05:39:10.971Z,2.97
2023-04-02T05:41:47.534Z,1.67
2023-04-02T05:44:25.497Z,1.77
2023-04-02T05:47:02.881Z,1.90
2023-04-02T05:49:41.736Z,1.90
2023-04-02T05:52:18.441Z,1.77
2023-04-02T05:55:03.837Z,2.17
2023-04-02T05:57:46.805Z,2.20
2023-04-02T06:00:28.679Z,2.23
2023-04-02T06:03:08.211Z,2.50
2023-04-02T06:05:46.106Z,2.40
2023-04-02T06:08:25.638Z,1.93
2023-04-02T06:11:06.369Z,2.20
2023-04-02T06:13:41.022Z,2.30
2023-04-02T06:16:32.066Z,2.23
2023-04-02T06:19:26.636Z,2.93
2023-04-02T06:22:08.600Z,2.80
2023-04-02T06:24:59.297Z,2.73
2023-04-02T06:27:39.518Z,2.97
2023-04-02T06:30:28.196Z,3.00
2023-04-02T06:33:00.098Z,2.40
2023-04-02T06:35:36.609Z,2.70
2023-04-02T06:38:18.239Z,2.23
2023-04-02T06:41:00.905Z,3.20
2023-04-02T06:43:36.295Z,2.23
2023-04-02T06:46:22.384Z,2.20
2023-04-02T06:49:04.469Z,2.43
2023-04-02T06:51:39.794Z,2.70
2023-04-02T06:54:19.916Z,2.43
2023-04-02T06:56:52.497Z,2.33
2023-04-02T06:59:25.627Z,2.20
2023-04-02T07:02:06.851Z,2.30
2023-04-02T07:04:39.896Z,2.60
2023-04-02T07:07:29.241Z,2.73
2023-04-02T07:10:04.308Z,2.60
2023-04-02T07:12:38.588Z,2.30
2023-04-02T07:15:15.790Z,2.80
2023-04-02T07:17:47.553Z,2.50
2023-04-02T07:20:28.033Z,2.17
2023-04-02T07:23:01.360Z,2.07
2023-04-02T07:25:33.214Z,1.90
2023-04-02T07:28:04.125Z,2.03
2023-04-02T07:30:33.214Z,2.43
2023-04-02T07:33:14.273Z,2.00
2023-04-02T07:35:46.505Z,2.23
2023-04-02T07:38:25.843Z,2.50
2023-04-02T07:41:06.606Z,2.33
2023-04-02T07:43:38.297Z,2.63
2023-04-02T07:46:20.123Z,1.97
2023-04-02T07:49:08.364Z,2.93
2023-04-02T07:51:42.140Z,2.30
2023-04-02T07:54:31.642Z,2.60
2023-04-02T07:57:07.613Z,2.17
2023-04-02T07:59:43.083Z,2.50
2023-04-02T08:02:31.069Z,3.13
2023-04-02T08:05:13.396Z,2.80
2023-04-02T08:07:55.776Z,5.37
2023-04-02T08:10:34.368Z,2.97
2023-04-02T08:13:08.348Z,3.30
2023-04-02T08:15:39.796Z,2.90
2023-04-02T08:18:16.104Z,2.93
2023-04-02T08:20:55.118Z,3.83
2023-04-02T08:23:43.473Z,3.17
2023-04-02T08:26:23.035Z,3.33
2023-04-02T08:28:57.986Z,3.20
2023-04-02T08:31:32.242Z,3.30
2023-04-02T08:34:09.762Z,3.67
2023-04-02T08:36:44.901Z,3.60
2023-04-02T08:39:23.345Z,3.60
2023-04-02T08:42:04.174Z,3.90
2023-04-02T08:44:46.527Z,3.50
2023-04-02T08:47:20.453Z,3.20
2023-04-02T08:50:01.135Z,3.77
2023-04-02T08:52:39.272Z,4.90
2023-04-02T08:55:23.759Z,3.37
2023-04-02T08:58:16.585Z,3.30
2023-04-02T09:00:55.101Z,2.90
2023-04-02T09:03:45.189Z,2.93
2023-04-02T09:06:21.001Z,2.90
2023-04-02T09:09:01.300Z,2.60
2023-04-02T09:11:49.530Z,2.80
2023-04-02T09:14:38.027Z,2.90
2023-04-02T09:17:18.236Z,2.70
2023-04-02T09:19:55.414Z,2.40
2023-04-02T09:22:35.209Z,2.97
2023-04-02T09:25:15.325Z,2.80
2023-04-02T09:27:51.788Z,2.90
2023-04-02T09:30:34.408Z,3.03
2023-04-02T09:33:12.974Z,2.80
2023-04-02T09:35:58.362Z,2.70
2023-04-02T09:38:36.309Z,2.53
2023-04-02T09:41:21.016Z,2.57
2023-04-02T09:44:30.444Z,2.67
2023-04-02T09:47:06.916Z,2.37
2023-04-02T09:49:42.019Z,2.60
2023-04-02T09:52:22.751Z,2.57
2023-04-02T09:55:22.751Z,3.00
2023-04-02T09:58:12.186Z,2.50
2023-04-02T10:00:52.094Z,2.60
2023-04-02T10:03:32.904Z,2.50
2023-04-02T10:06:16.889Z,2.47
2023-04-02T10:08:50.673Z,2.20
2023-04-02T10:11:45.716Z,2.40
2023-04-02T10:14:24.954Z,2.47
2023-04-02T10:17:08.930Z,2.80
2023-04-02T10:20:02.715Z,2.10
2023-04-02T10:22:33.576Z,2.20
2023-04-02T10:25:15.704Z,2.20
2023-04-02T10:27:58.236Z,2.17
2023-04-02T10:30:46.872Z,2.13
2023-04-02T10:33:27.988Z,2.23
2023-04-02T10:36:08.014Z,2.10
2023-04-02T10:38:51.004Z,2.03
2023-04-02T10:41:34.006Z,2.10
2023-04-02T10:44:26.690Z,2.30
2023-04-02T10:47:11.013Z,2.47
2023-04-02T10:49:58.465Z,1.93
2023-04-02T10:52:44.601Z,2.90
2023-04-02T10:55:21.983Z,3.07
2023-04-02T10:58:23.345Z,2.17
2023-04-02T11:01:02.435Z,1.70
2023-04-02T11:03:37.976Z,1.90
2023-04-02T11:06:18.631Z,2.60
2023-04-02T11:08:56.730Z,4.60
2023-04-02T11:11:41.381Z,3.90
2023-04-02T11:14:26.912Z,5.70
2023-04-02T11:17:03.096Z,2.90
2023-04-02T11:19:50.422Z,3.60
2023-04-02T11:22:25.710Z,2.80
2023-04-02T11:25:22.702Z,4.67
2023-04-02T11:27:53.466Z,4.80
2023-04-02T11:30:28.788Z,2.67
2023-04-02T11:33:39.225Z,3.43
2023-04-02T11:36:53.795Z,4.87
2023-04-02T11:39:55.185Z,2.83
2023-04-02T11:42:31.614Z,2.83
2023-04-02T11:46:00.785Z,3.30
2023-04-02T11:48:46.265Z,2.57
2023-04-02T11:51:56.402Z,3.43
2023-04-02T11:54:43.999Z,3.37
2023-04-02T11:58:08.821Z,3.03
2023-04-02T12:01:11.759Z,5.70
2023-04-02T12:04:16.944Z,5.00
2023-04-02T12:07:05.322Z,3.97
2023-04-02T12:09:50.432Z,3.73
2023-04-02T12:12:29.033Z,3.50
2023-04-02T12:15:25.039Z,3.57
2023-04-02T12:18:14.338Z,2.73
2023-04-02T12:21:02.049Z,3.60
2023-04-02T12:23:40.920Z,3.73
2023-04-02T12:26:32.117Z,3.10
2023-04-02T12:29:26.135Z,2.90
2023-04-02T12:32:22.286Z,3.03
2023-04-02T12:35:22.698Z,2.80
2023-04-02T12:37:54.806Z,3.23
2023-04-02T12:40:30.177Z,3.27
2023-04-02T12:43:06.345Z,3.10
2023-04-02T12:45:40.831Z,3.27
2023-04-02T12:48:17.726Z,3.10
2023-04-02T12:50:57.350Z,2.80
2023-04-02T12:53:36.662Z,3.37
2023-04-02T12:56:21.407Z,2.80
2023-04-02T12:58:56.484Z,3.13
2023-04-02T13:01:36.223Z,3.27
2023-04-02T13:04:12.481Z,3.03
2023-04-02T13:06:54.864Z,2.80
2023-04-02T13:09:32.460Z,3.10
2023-04-02T13:12:07.388Z,3.10
2023-04-02T13:14:44.852Z,2.57
2023-04-02T13:17:39.969Z,2.93
2023-04-02T13:20:36.296Z,2.87
2023-04-02T13:23:32.004Z,2.77
2023-04-02T13:26:12.118Z,2.87
2023-04-02T13:28:58.329Z,3.30
2023-04-02T13:31:34.769Z,2.90
2023-04-02T13:34:09.564Z,2.77
2023-04-02T13:36:58.878Z,3.17
2023-04-02T13:39:30.724Z,2.90
2023-04-02T13:42:08.878Z,2.67
2023-04-02T13:44:43.518Z,3.57
2023-04-02T13:47:15.909Z,2.97
2023-04-02T13:49:46.067Z,2.80
2023-04-02T13:52:19.089Z,2.80
2023-04-02T13:54:54.149Z,2.60
2023-04-02T13:57:27.221Z,2.70
2023-04-02T13:59:59.864Z,2.67
2023-04-02T14:02:34.936Z,2.93
2023-04-02T14:05:17.513Z,2.63
2023-04-02T14:08:02.410Z,2.80
2023-04-02T14:10:48.981Z,2.77
2023-04-02T14:13:31.296Z,9.20
2023-04-02T14:16:15.030Z,7.03
2023-04-02T14:19:13.951Z,7.93
2023-04-02T14:22:06.464Z,3.60
2023-04-02T14:24:43.918Z,3.03
2023-04-02T14:27:30.927Z,3.80
2023-04-02T14:30:18.843Z,3.80
2023-04-02T14:33:05.349Z,3.23
2023-04-02T14:35:50.534Z,3.37
2023-04-02T14:38:30.983Z,2.97
2023-04-02T14:41:10.990Z,2.80
2023-04-02T14:43:55.269Z,3.10
2023-04-02T14:46:34.360Z,2.60
2023-04-02T14:49:21.801Z,2.40
2023-04-02T14:52:04.288Z,2.30
2023-04-02T14:54:51.977Z,2.47
2023-04-02T14:57:39.759Z,2.43
2023-04-02T15:00:27.952Z,2.27
2023-04-02T15:03:17.089Z,2.10
2023-04-02T15:05:55.119Z,2.60
2023-04-02T15:08:37.969Z,3.00
2023-04-02T15:11:18.204Z,5.37
2023-04-02T15:14:06.125Z,2.10
2023-04-02T15:16:46.146Z,2.27
2023-04-02T15:19:18.837Z,2.37
2023-04-02T15:22:09.719Z,2.33
2023-04-02T15:24:56.454Z,2.03
2023-04-02T15:27:42.781Z,2.20
2023-04-02T15:30:19.515Z,4.50
2023-04-02T15:32:55.760Z,2.10
2023-04-02T15:35:37.503Z,2.20
2023-04-02T15:38:20.306Z,2.10
2023-04-02T15:41:10.643Z,2.17
2023-04-02T15:43:56.760Z,2.00
2023-04-02T15:46:43.435Z,2.20
2023-04-02T15:49:43.041Z,2.10
2023-04-02T15:52:37.086Z,2.13
2023-04-02T15:55:26.738Z,2.27
2023-04-02T15:58:22.826Z,2.00
2023-04-02T16:01:08.739Z,2.10
2023-04-02T16:04:05.162Z,2.10
2023-04-02T16:06:54.336Z,1.97
2023-04-02T16:09:47.991Z,2.17
2023-04-02T16:12:22.045Z,2.17
2023-04-02T16:15:05.939Z,3.33
2023-04-02T16:17:39.663Z,4.50
2023-04-02T16:20:21.123Z,5.50
2023-04-02T16:23:00.505Z,4.73
2023-04-02T16:25:36.034Z,3.57
2023-04-02T16:28:14.875Z,3.80
2023-04-02T16:30:51.528Z,3.80
2023-04-02T16:33:44.265Z,3.50
2023-04-02T16:36:27.880Z,2.70
2023-04-02T16:39:00.942Z,3.00
2023-04-02T16:41:51.388Z,2.73
2023-04-02T16:44:29.571Z,2.70
2023-04-02T16:47:10.317Z,2.90
2023-04-02T16:49:43.101Z,2.63
2023-04-02T16:52:23.954Z,3.00
2023-04-02T16:55:05.027Z,2.90
2023-04-02T16:57:42.147Z,2.73
2023-04-02T17:00:22.126Z,2.80
2023-04-02T17:03:03.254Z,2.60
2023-04-02T17:05:33.550Z,2.80
2023-04-02T17:08:18.345Z,2.33
2023-04-02T17:10:52.720Z,2.60
2023-04-02T17:13:27.534Z,3.33
2023-04-02T17:16:07.002Z,2.90
2023-04-02T17:18:35.865Z,2.40
2023-04-02T17:21:07.168Z,3.20
2023-04-02T17:23:55.863Z,3.10
2023-04-02T17:26:28.659Z,3.77
2023-04-02T17:28:58.469Z,3.70
2023-04-02T17:31:30.820Z,3.47
2023-04-02T17:33:59.306Z,3.30
2023-04-02T17:36:38.252Z,3.50
2023-04-02T17:39:18.560Z,4.17
2023-04-02T17:41:52.892Z,3.93
2023-04-02T17:44:43.078Z,2.83
2023-04-02T17:47:20.525Z,3.67
2023-04-02T17:49:58.592Z,3.00
2023-04-02T17:52:35.304Z,2.90
2023-04-02T17:55:12.404Z,2.80
2023-04-02T17:57:52.392Z,2.80
2023-04-02T18:00:31.015Z,2.77
2023-04-02T18:03:26.338Z,2.67
2023-04-02T18:06:00.294Z,3.53
2023-04-02T18:08:39.733Z,3.40
2023-04-02T18:11:14.768Z,3.47
2023-04-02T18:13:50.578Z,3.50
2023-04-02T18:16:29.465Z,2.47
2023-04-02T18:19:09.623Z,2.90
2023-04-02T18:21:46.496Z,2.60
2023-04-02T18:24:36.641Z,2.90
2023-04-02T18:27:22.366Z,2.80
2023-04-02T18:29:57.585Z,3.37
2023-04-02T18:32:43.529Z,2.50
2023-04-02T18:35:20.025Z,5.60
2023-04-02T18:38:01.702Z,3.70
2023-04-02T18:40:39.450Z,3.70
2023-04-02T18:43:21.829Z,4.20
2023-04-02T18:45:57.655Z,7.60
2023-04-02T18:48:40.812Z,9.63
2023-04-02T18:51:16.257Z,3.70
2023-04-02T18:53:46.366Z,4.97
2023-04-02T18:56:19.784Z,3.23
2023-04-02T18:58:57.832Z,3.00
2023-04-02T19:01:31.573Z,3.63
2023-04-02T19:04:08.335Z,3.10
2023-04-02T19:06:40.169Z,2.40
2023-04-02T19:09:15.689Z,2.13
2023-04-02T19:11:44.657Z,2.80
2023-04-02T19:14:17.621Z,2.70
2023-04-02T19:17:06.114Z,2.70
2023-04-02T19:19:42.371Z,2.50
2023-04-02T19:22:18.454Z,2.27
2023-04-02T19:25:05.411Z,2.63
2023-04-02T19:27:48.088Z,2.30
2023-04-02T19:30:33.358Z,2.33
2023-04-02T19:33:10.118Z,2.17
2023-04-02T19:35:45.878Z,2.27
2023-04-02T19:38:31.200Z,2.63
2023-04-02T19:41:05.910Z,3.30
2023-04-02T19:43:34.760Z,2.70
2023-04-02T19:46:04.720Z,3.23
2023-04-02T19:48:42.187Z,2.80
2023-04-02T19:51:10.669Z,3.20
2023-04-02T19:53:39.199Z,2.93
2023-04-02T19:56:08.895Z,3.20
2023-04-02T19:58:39.801Z,2.90
2023-04-02T20:01:10.689Z,3.10
2023-04-02T20:03:39.562Z,3.00
2023-04-02T20:06:08.471Z,2.70
2023-04-02T20:08:38.441Z,2.90
2023-04-02T20:11:08.329Z,3.20
2023-04-02T20:13:37.052Z,3.50
2023-04-02T20:16:07.836Z,3.50
2023-04-02T20:18:38.297Z,3.17
2023-04-02T20:21:08.282Z,3.03
2023-04-02T20:23:37.587Z,3.30
2023-04-02T20:26:06.823Z,3.10
2023-04-02T20:28:35.756Z,2.67
2023-04-02T20:31:09.344Z,2.73
2023-04-02T20:33:39.439Z,2.83
2023-04-02T20:36:10.793Z,3.17
2023-04-02T20:38:39.732Z,3.10
2023-04-02T20:41:09.504Z,3.43
2023-04-02T20:43:40.670Z,3.27
2023-04-02T20:46:10.931Z,4.00
2023-04-02T20:48:42.312Z,3.73
2023-04-02T20:51:14.093Z,3.63
2023-04-02T20:53:43.802Z,3.40
2023-04-02T20:56:14.366Z,3.63
2023-04-02T20:58:43.866Z,3.20
2023-04-02T21:01:15.802Z,3.40
2023-04-02T21:03:46.422Z,2.97
2023-04-02T21:06:17.185Z,3.70
2023-04-02T21:08:46.744Z,2.97
2023-04-02T21:11:16.073Z,2.73
2023-04-02T21:13:44.736Z,2.50
2023-04-02T21:16:16.126Z,2.60
2023-04-02T21:18:46.753Z,2.80
2023-04-02T21:21:16.007Z,2.40
2023-04-02T21:23:45.784Z,3.03
2023-04-02T21:26:16.297Z,2.40
2023-04-02T21:28:45.837Z,3.00
2023-04-02T21:31:17.885Z,2.70
2023-04-02T21:33:49.882Z,2.73
2023-04-02T21:36:20.538Z,2.40
2023-04-02T21:38:51.305Z,2.50
2023-04-02T21:41:22.266Z,2.63
2023-04-02T21:43:51.542Z,2.30
2023-04-02T21:46:21.774Z,2.50
2023-04-02T21:48:52.346Z,2.20
2023-04-02T21:51:23.002Z,2.13
2023-04-02T21:53:54.055Z,2.10
2023-04-02T21:56:24.313Z,2.47
2023-04-02T21:58:53.568Z,2.00
2023-04-02T22:01:27.637Z,1.80
2023-04-02T22:03:59.860Z,1.90
2023-04-02T22:06:30.143Z,2.30
2023-04-02T22:09:00.357Z,2.00
2023-04-02T22:11:31.444Z,2.00
2023-04-02T22:14:00.155Z,1.90
2023-04-02T22:16:30.349Z,2.23
2023-04-02T22:19:01.964Z,1.80
2023-04-02T22:21:31.857Z,1.60
2023-04-02T22:24:01.564Z,1.60
2023-04-02T22:26:30.517Z,1.67
2023-04-02T22:28:59.185Z,1.80
2023-04-02T22:31:29.852Z,1.40
2023-04-02T22:38:00.050Z,1.70
2023-04-02T22:40:29.833Z,1.80
2023-04-02T22:42:57.999Z,2.03
2023-04-02T22:45:26.337Z,1.53
2023-04-02T22:47:55.071Z,1.80
2023-04-02T22:50:23.574Z,1.77
2023-04-02T22:52:51.738Z,1.43
2023-04-02T22:55:21.350Z,1.50
2023-04-02T22:57:49.597Z,1.90
2023-04-02T23:00:18.809Z,1.70
2023-04-02T23:02:47.113Z,1.50
2023-04-02T23:05:15.927Z,1.70
2023-04-02T23:07:44.223Z,2.00
2023-04-02T23:10:12.862Z,1.97
2023-04-02T23:12:42.801Z,1.80
2023-04-02T23:15:11.866Z,1.80
2023-04-02T23:17:42.650Z,1.87
2023-04-02T23:20:15.976Z,1.83
2023-04-02T23:22:44.293Z,2.10
2023-04-02T23:25:13.237Z,1.77
2023-04-02T23:27:42.959Z,2.17
2023-04-02T23:30:11.545Z,1.83
2023-04-02T23:32:39.944Z,2.07
2023-04-02T23:35:09.345Z,1.50
2023-04-02T23:37:37.864Z,2.03
2023-04-02T23:40:07.385Z,1.60
2023-04-02T23:42:35.779Z,2.20
2023-04-02T23:45:06.356Z,1.63
2023-04-02T23:47:34.807Z,1.80
2023-04-02T23:50:02.927Z,1.80
2023-04-02T23:52:31.434Z,2.10
2023-04-02T23:54:59.780Z,1.57
2023-04-02T23:57:27.983Z,2.00
2023-04-02T23:59:56.572Z,1.80
